createdAt,value
2022-09-25T00:00:45.447Z,97509.00
2022-09-25T00:04:46.791Z,97510.00
2022-09-25T00:08:48.654Z,97505.00
2022-09-25T00:12:49.852Z,97514.00
2022-09-25T00:16:51.065Z,97517.00
2022-09-25T00:21:00.616Z,97510.00
2022-09-25T00:25:03.030Z,97504.00
2022-09-25T00:29:05.736Z,97457.00
2022-09-25T00:33:06.870Z,97499.00
2022-09-25T00:37:08.262Z,97492.00
2022-09-25T00:41:09.554Z,97493.00
2022-09-25T00:45:17.207Z,97495.00
2022-09-25T00:49:22.405Z,97498.00
2022-09-25T00:53:30.263Z,97489.00
2022-09-25T00:57:34.497Z,97485.00
2022-09-25T01:01:35.877Z,97483.00
2022-09-25T01:05:40.290Z,97484.00
2022-09-25T01:09:41.752Z,97482.00
2022-09-25T01:13:43.275Z,97490.00
2022-09-25T01:17:54.551Z,97482.00
2022-09-25T01:22:02.443Z,97483.00
2022-09-25T01:26:40.741Z,97484.00
2022-09-25T01:30:45.562Z,97477.00
2022-09-25T01:34:56.098Z,97483.00
2022-09-25T01:39:03.925Z,97480.00
2022-09-25T01:43:11.997Z,97480.00
2022-09-25T01:47:18.051Z,97478.00
2022-09-25T01:51:23.620Z,97476.00
2022-09-25T01:55:31.456Z,97468.00
2022-09-25T01:59:45.428Z,97470.00
2022-09-25T02:03:50.842Z,97467.00
2022-09-25T02:07:55.711Z,97469.00
2022-09-25T02:12:00.577Z,97468.00
2022-09-25T02:16:08.467Z,97462.00
2022-09-25T02:20:27.913Z,97465.00
2022-09-25T02:24:32.747Z,97463.00
2022-09-25T02:28:35.224Z,97460.00
2022-09-25T02:32:36.655Z,97463.00
2022-09-25T02:36:38.043Z,97464.00
2022-09-25T02:40:49.194Z,97470.00
2022-09-25T02:45:00.255Z,97466.00
2022-09-25T02:49:23.026Z,97460.00
2022-09-25T02:53:48.756Z,97472.00
2022-09-25T02:58:12.955Z,97469.00
2022-09-25T03:02:16.283Z,97466.00
2022-09-25T03:06:18.898Z,97469.00
2022-09-25T03:10:20.583Z,97473.00
2022-09-25T03:14:21.750Z,97473.00
2022-09-25T03:18:24.918Z,97478.00
2022-09-25T03:22:26.039Z,97471.00
2022-09-25T03:26:27.298Z,97472.00
2022-09-25T03:30:29.187Z,97469.00
2022-09-25T03:34:30.703Z,97469.00
2022-09-25T03:38:32.625Z,97464.00
2022-09-25T03:42:33.782Z,97462.00
2022-09-25T03:46:35.874Z,97455.00
2022-09-25T03:50:38.713Z,97452.00
2022-09-25T03:54:40.466Z,97448.00
2022-09-25T03:58:41.644Z,97447.00
2022-09-25T04:02:42.876Z,97454.00
2022-09-25T04:06:44.152Z,97457.00
2022-09-25T04:10:45.817Z,97457.00
2022-09-25T04:14:47.208Z,97454.00
2022-09-25T04:18:50.065Z,97447.00
2022-09-25T04:22:51.399Z,97441.00
2022-09-25T04:26:53.181Z,97438.00
2022-09-25T04:30:54.349Z,97448.00
2022-09-25T04:34:55.510Z,97447.00
2022-09-25T04:38:56.643Z,97451.00
2022-09-25T04:42:59.622Z,97442.00
2022-09-25T04:47:00.740Z,97454.00
2022-09-25T04:51:02.420Z,97443.00
2022-09-25T04:55:04.283Z,97446.00
2022-09-25T04:59:05.448Z,97456.00
2022-09-25T05:03:06.970Z,97455.00
2022-09-25T05:07:08.421Z,97454.00
2022-09-25T05:11:10.720Z,97456.00
2022-09-25T05:15:11.857Z,97457.00
2022-09-25T05:19:13.567Z,97454.00
2022-09-25T05:23:15.703Z,97463.00
2022-09-25T05:27:17.088Z,97456.00
2022-09-25T05:31:18.089Z,97452.00
2022-09-25T05:35:21.649Z,97450.00
2022-09-25T05:39:22.982Z,97442.00
2022-09-25T05:43:25.958Z,97451.00
2022-09-25T05:47:26.947Z,97453.00
2022-09-25T05:51:28.240Z,97450.00
2022-09-25T05:55:30.250Z,97454.00
2022-09-25T05:59:31.339Z,97455.00
2022-09-25T06:03:32.734Z,97463.00
2022-09-25T06:07:34.760Z,97454.00
2022-09-25T06:11:35.875Z,97461.00
2022-09-25T06:15:38.767Z,97470.00
2022-09-25T06:19:40.024Z,97462.00
2022-09-25T06:23:43.985Z,97461.00
2022-09-25T06:27:45.017Z,97456.00
2022-09-25T06:31:46.166Z,97463.00
2022-09-25T06:35:48.917Z,97473.00
2022-09-25T06:39:49.898Z,97465.00
2022-09-25T06:43:51.866Z,97467.00
2022-09-25T06:47:55.813Z,97458.00
2022-09-25T06:51:57.585Z,97467.00
2022-09-25T06:55:59.227Z,97473.00
2022-09-25T07:00:00.587Z,97462.00
2022-09-25T07:04:03.406Z,97471.00
2022-09-25T07:08:04.424Z,97461.00
2022-09-25T07:12:06.677Z,97471.00
2022-09-25T07:16:16.551Z,97479.00
2022-09-25T07:20:18.008Z,97472.00
2022-09-25T07:24:19.199Z,97473.00
2022-09-25T07:28:20.278Z,97467.00
2022-09-25T07:32:21.851Z,97474.00
2022-09-25T07:36:22.938Z,97467.00
2022-09-25T07:40:26.904Z,97472.00
2022-09-25T07:44:29.534Z,97469.00
2022-09-25T07:48:30.952Z,97474.00
2022-09-25T07:52:32.513Z,97472.00
2022-09-25T07:56:34.001Z,97482.00
2022-09-25T08:00:35.289Z,97486.00
2022-09-25T08:04:36.269Z,97483.00
2022-09-25T08:08:38.783Z,97483.00
2022-09-25T08:12:40.371Z,97487.00
2022-09-25T08:16:42.401Z,97495.00
2022-09-25T08:20:43.464Z,97490.00
2022-09-25T08:24:44.723Z,97491.00
2022-09-25T08:28:45.851Z,97492.00
2022-09-25T08:32:47.028Z,97494.00
2022-09-25T08:36:50.985Z,97499.00
2022-09-25T08:41:24.907Z,97491.00
2022-09-25T08:45:53.975Z,97494.00
2022-09-25T08:50:01.704Z,97497.00
2022-09-25T08:54:04.204Z,97495.00
2022-09-25T08:58:05.958Z,97496.00
2022-09-25T09:02:16.958Z,97495.00
2022-09-25T09:06:18.595Z,97494.00
2022-09-25T09:10:23.513Z,97496.00
2022-09-25T09:14:28.592Z,97503.00
2022-09-25T09:18:33.510Z,97494.00
2022-09-25T09:22:41.589Z,97491.00
2022-09-25T09:27:09.241Z,97510.00
2022-09-25T09:31:26.092Z,97495.00
2022-09-25T09:35:42.973Z,97495.00
2022-09-25T09:40:09.054Z,97504.00
2022-09-25T09:44:18.038Z,97494.00
2022-09-25T09:48:38.538Z,97495.00
2022-09-25T09:52:41.962Z,97497.00
2022-09-25T09:56:46.685Z,97491.00
2022-09-25T10:00:48.893Z,97498.00
2022-09-25T10:04:52.109Z,97492.00
2022-09-25T10:08:53.212Z,97495.00
2022-09-25T10:12:54.540Z,97487.00
2022-09-25T10:16:56.828Z,97488.00
2022-09-25T10:21:14.570Z,97490.00
2022-09-25T10:25:22.382Z,97490.00
2022-09-25T10:29:27.543Z,97499.00
2022-09-25T10:33:32.602Z,97501.00
2022-09-25T10:37:34.613Z,97500.00
2022-09-25T10:41:42.874Z,97486.00
2022-09-25T10:45:44.590Z,97491.00
2022-09-25T10:50:06.394Z,97495.00
2022-09-25T10:54:15.915Z,97494.00
2022-09-25T10:58:24.119Z,97497.00
2022-09-25T11:02:41.117Z,97495.00
2022-09-25T11:06:46.074Z,97490.00
2022-09-25T11:10:55.469Z,97487.00
2022-09-25T11:15:05.580Z,97486.00
2022-09-25T11:19:16.560Z,97494.00
2022-09-25T11:23:42.931Z,97493.00
2022-09-25T11:27:48.524Z,97494.00
2022-09-25T11:31:53.351Z,97509.00
2022-09-25T11:36:07.226Z,97501.00
2022-09-25T11:40:33.497Z,97509.00
2022-09-25T11:44:38.594Z,97487.00
2022-09-25T11:48:53.745Z,97495.00
2022-09-25T11:53:16.889Z,97502.00
2022-09-25T11:57:36.862Z,97499.00
2022-09-25T12:01:42.038Z,97490.00
2022-09-25T12:05:56.148Z,97489.00
2022-09-25T12:10:22.085Z,97489.00
2022-09-25T12:14:32.953Z,97489.00
2022-09-25T12:18:54.688Z,97493.00
2022-09-25T12:23:05.744Z,97493.00
2022-09-25T12:27:38.086Z,97490.00
2022-09-25T12:31:52.910Z,97484.00
2022-09-25T12:36:16.024Z,97491.00
2022-09-25T12:40:26.943Z,97489.00
2022-09-25T12:44:49.707Z,97486.00
2022-09-25T12:49:03.849Z,97494.00
2022-09-25T12:53:25.216Z,97489.00
2022-09-25T12:57:32.810Z,97486.00
2022-09-25T13:01:46.955Z,97476.00
2022-09-25T13:05:55.602Z,97485.00
2022-09-25T13:09:56.684Z,97486.00
2022-09-25T13:13:58.766Z,97487.00
2022-09-25T13:18:00.263Z,97495.00
2022-09-25T13:22:05.257Z,97489.00
2022-09-25T13:26:13.159Z,97482.00
2022-09-25T13:30:24.488Z,97485.00
2022-09-25T13:34:25.945Z,97485.00
2022-09-25T13:38:46.429Z,97484.00
2022-09-25T13:42:47.590Z,97479.00
2022-09-25T13:46:49.100Z,97476.00
2022-09-25T13:50:55.067Z,97474.00
2022-09-25T13:55:20.659Z,97480.00
2022-09-25T13:59:25.957Z,97479.00
2022-09-25T14:03:34.024Z,97468.00
2022-09-25T14:07:35.811Z,97463.00
2022-09-25T14:11:39.864Z,97457.00
2022-09-25T14:15:41.937Z,97449.00
2022-09-25T14:19:48.331Z,97441.00
2022-09-25T14:23:52.943Z,97443.00
2022-09-25T14:27:55.393Z,97438.00
2022-09-25T14:32:06.451Z,97437.00
2022-09-25T14:36:26.251Z,97443.00
2022-09-25T14:40:46.256Z,97446.00
2022-09-25T14:44:54.970Z,97444.00
2022-09-25T14:49:18.155Z,97440.00
2022-09-25T14:53:28.762Z,97440.00
2022-09-25T14:57:33.790Z,97442.00
2022-09-25T15:01:37.876Z,97438.00
2022-09-25T15:05:40.967Z,97440.00
2022-09-25T15:09:47.656Z,97444.00
2022-09-25T15:13:49.036Z,97441.00
2022-09-25T15:17:54.179Z,97440.00
2022-09-25T15:21:55.427Z,97434.00
2022-09-25T15:25:59.025Z,97428.00
2022-09-25T15:30:01.340Z,97429.00
2022-09-25T15:34:06.477Z,97435.00
2022-09-25T15:38:12.903Z,97436.00
2022-09-25T15:42:15.155Z,97427.00
2022-09-25T15:46:33.367Z,97426.00
2022-09-25T15:50:36.051Z,97422.00
2022-09-25T15:54:41.255Z,97419.00
2022-09-25T15:58:49.329Z,97418.00
2022-09-25T16:03:22.800Z,97421.00
2022-09-25T16:07:35.722Z,97424.00
2022-09-25T16:11:37.829Z,97419.00
2022-09-25T16:15:47.914Z,97426.00
2022-09-25T16:20:01.610Z,97421.00
2022-09-25T16:24:07.082Z,97421.00
2022-09-25T16:28:17.405Z,97417.00
2022-09-25T16:32:21.599Z,97422.00
2022-09-25T16:36:27.515Z,97419.00
2022-09-25T16:40:36.916Z,97420.00
2022-09-25T16:44:44.351Z,97415.00
2022-09-25T16:48:59.583Z,97416.00
2022-09-25T16:53:03.681Z,97410.00
2022-09-25T16:57:05.518Z,97415.00
2022-09-25T17:01:09.488Z,97417.00
2022-09-25T17:05:22.968Z,97410.00
2022-09-25T17:09:25.528Z,97408.00
2022-09-25T17:13:29.978Z,97401.00
2022-09-25T17:17:32.526Z,97410.00
2022-09-25T17:21:34.845Z,97414.00
2022-09-25T17:25:47.901Z,97418.00
2022-09-25T17:29:50.920Z,97417.00
2022-09-25T17:33:52.426Z,97426.00
2022-09-25T17:37:53.894Z,97428.00
2022-09-25T17:41:56.348Z,97429.00
2022-09-25T17:45:59.210Z,97425.00
2022-09-25T17:50:00.983Z,97440.00
2022-09-25T17:54:05.185Z,97444.00
2022-09-25T17:58:09.648Z,97433.00
2022-09-25T18:02:14.608Z,97446.00
2022-09-25T18:06:17.605Z,97450.00
2022-09-25T18:10:18.861Z,97449.00
2022-09-25T18:14:22.624Z,97445.00
2022-09-25T18:18:24.385Z,97460.00
2022-09-25T18:22:25.937Z,97458.00
2022-09-25T18:26:31.511Z,97413.00
2022-09-25T18:30:33.814Z,97449.00
2022-09-25T18:34:35.291Z,97457.00
2022-09-25T18:38:40.198Z,97446.00
2022-09-25T18:42:44.244Z,97455.00
2022-09-25T18:46:49.849Z,97457.00
2022-09-25T18:50:52.814Z,97455.00
2022-09-25T18:54:55.096Z,97461.00
2022-09-25T18:58:56.860Z,97453.00
2022-09-25T19:02:59.419Z,97451.00
2022-09-25T19:07:02.136Z,97455.00
2022-09-25T19:11:07.540Z,97456.00
2022-09-25T19:15:09.816Z,97450.00
2022-09-25T19:19:12.579Z,97439.00
2022-09-25T19:23:14.459Z,97452.00
2022-09-25T19:27:17.321Z,97445.00
2022-09-25T19:31:21.874Z,97447.00
2022-09-25T19:35:25.892Z,97454.00
2022-09-25T19:39:28.282Z,97446.00
2022-09-25T19:43:33.425Z,97453.00
2022-09-25T19:47:37.792Z,97453.00
2022-09-25T19:51:40.488Z,97460.00
2022-09-25T19:55:44.677Z,97461.00
2022-09-25T19:59:49.766Z,97452.00
2022-09-25T20:03:52.034Z,97454.00
2022-09-25T20:07:53.093Z,97457.00
2022-09-25T20:11:54.074Z,97455.00
2022-09-25T20:15:55.487Z,97447.00
2022-09-25T20:19:57.078Z,97441.00
2022-09-25T20:24:01.077Z,97435.00
2022-09-25T20:28:02.506Z,97441.00
2022-09-25T20:32:04.273Z,97424.00
2022-09-25T20:36:08.907Z,97426.00
2022-09-25T20:40:10.437Z,97418.00
2022-09-25T20:44:12.290Z,97416.00
2022-09-25T20:48:15.812Z,97425.00
2022-09-25T20:52:17.081Z,97416.00
2022-09-25T20:56:19.259Z,97411.00
2022-09-25T21:00:20.894Z,97411.00
2022-09-25T21:04:21.875Z,97418.00
2022-09-25T21:08:26.178Z,97409.00
2022-09-25T21:12:27.658Z,97407.00
2022-09-25T21:16:31.469Z,97408.00
2022-09-25T21:20:35.055Z,97416.00
2022-09-25T21:24:36.151Z,97412.00
2022-09-25T21:28:39.291Z,97409.00
2022-09-25T21:32:41.118Z,97406.00
2022-09-25T21:36:42.961Z,97399.00
2022-09-25T21:40:43.992Z,97411.00
2022-09-25T21:44:45.369Z,97410.00
2022-09-25T21:48:48.644Z,97397.00
2022-09-25T21:52:50.665Z,97397.00
2022-09-25T21:56:51.669Z,97397.00
2022-09-25T22:01:06.407Z,97394.00
2022-09-25T22:05:10.619Z,97391.00
2022-09-25T22:09:18.553Z,97396.00
2022-09-25T22:13:20.020Z,97394.00
2022-09-25T22:17:23.027Z,97394.00
2022-09-25T22:21:27.832Z,97391.00
2022-09-25T22:25:28.954Z,97396.00
2022-09-25T22:29:31.060Z,97397.00
2022-09-25T22:33:32.829Z,97382.00
2022-09-25T22:37:33.880Z,97389.00
2022-09-25T22:41:34.757Z,97385.00
2022-09-25T22:45:35.816Z,97385.00
2022-09-25T22:49:36.880Z,97385.00
2022-09-25T22:53:38.514Z,97371.00
2022-09-25T22:57:39.472Z,97370.00
2022-09-25T23:01:44.530Z,97373.00
2022-09-25T23:05:45.865Z,97367.00
2022-09-25T23:09:47.312Z,97361.00
2022-09-25T23:13:51.360Z,97364.00
2022-09-25T23:17:52.320Z,97364.00
2022-09-25T23:21:54.095Z,97360.00
2022-09-25T23:26:05.470Z,97350.00
2022-09-25T23:30:07.527Z,97347.00
2022-09-25T23:34:09.840Z,97337.00
2022-09-25T23:38:12.733Z,97344.00
2022-09-25T23:42:13.768Z,97338.00
2022-09-25T23:46:16.408Z,97341.00
2022-09-25T23:50:17.522Z,97333.00
2022-09-25T23:54:18.655Z,97332.00
2022-09-25T23:58:19.826Z,97343.00
